Time;durP1;ratioP1;P1;durP2;ratioP2;P2;SDS_P1;SDS_P2;PMS_P1;PMS_P2;Temp;Humidity;BMP_temperature;BMP_pressure;BME280_temperature;BME280_humidity;BME280_pressure;Samples;Min_cycle;Max_cycle;Signal;HPM_P1;HPM_P2
2022/11/07 00:00:38;;;;;;;8.60;6.18;;;6.00;99.90;;;;;;4821306;29;20046;-79
2022/11/07 00:03:05;;;;;;;9.20;6.28;;;6.00;99.90;;;;;;4821163;29;20054;-80
2022/11/07 00:05:32;;;;;;;9.65;5.63;;;6.00;99.90;;;;;;4820365;29;20057;-79
2022/11/07 00:07:59;;;;;;;8.45;6.90;;;6.00;99.90;;;;;;4820457;29;20433;-78
2022/11/07 00:10:26;;;;;;;10.65;6.35;;;6.00;99.90;;;;;;4814802;29;20061;-79
2022/11/07 00:12:55;;;;;;;9.60;6.93;;;6.00;99.90;;;;;;4821093;29;20488;-79
2022/11/07 00:15:22;;;;;;;9.25;6.30;;;6.00;99.90;;;;;;4821320;29;20043;-79
2022/11/07 00:17:49;;;;;;;8.52;6.22;;;6.00;99.90;;;;;;4816103;29;20058;-79
2022/11/07 00:20:16;;;;;;;9.65;6.60;;;6.00;99.90;;;;;;4803236;29;20057;-79
2022/11/07 00:22:43;;;;;;;9.25;6.20;;;6.00;99.90;;;;;;4819908;29;20077;-79
2022/11/07 00:25:10;;;;;;;8.93;6.30;;;6.00;99.90;;;;;;4817651;29;20058;-79
2022/11/07 00:27:39;;;;;;;12.27;6.70;;;6.00;99.90;;;;;;4823275;29;20148;-79
2022/11/07 00:30:08;;;;;;;11.20;6.05;;;6.00;99.90;;;;;;4819534;29;20061;-77
2022/11/07 00:32:36;;;;;;;9.15;5.90;;;6.00;99.90;;;;;;4820278;29;20055;-78
2022/11/07 00:35:03;;;;;;;9.82;5.95;;;6.00;99.90;;;;;;4824360;29;20420;-77
2022/11/07 00:37:30;;;;;;;11.23;6.95;;;6.00;99.90;;;;;;4820154;29;20141;-77
2022/11/07 00:39:57;;;;;;;11.57;6.30;;;6.10;99.90;;;;;;4820715;29;20412;-77
2022/11/07 00:42:24;;;;;;;12.93;6.35;;;6.10;99.90;;;;;;4804314;29;20056;-77
2022/11/07 00:44:51;;;;;;;8.52;5.78;;;6.10;99.90;;;;;;4822463;29;20054;-77
2022/11/07 00:47:20;;;;;;;8.80;5.78;;;6.20;99.90;;;;;;4820724;29;20068;-77
2022/11/07 00:49:47;;;;;;;10.73;6.35;;;6.20;99.90;;;;;;4818071;29;20050;-77
2022/11/07 00:52:14;;;;;;;10.32;6.13;;;6.20;99.90;;;;;;4820735;29;20143;-76
2022/11/07 00:54:41;;;;;;;8.85;5.95;;;6.30;99.90;;;;;;4817227;29;20407;-77
2022/11/07 00:57:08;;;;;;;7.35;5.22;;;6.30;99.90;;;;;;4803563;29;20126;-77
2022/11/07 00:59:35;;;;;;;7.72;5.43;;;6.30;99.90;;;;;;4820395;29;20050;-77
2022/11/07 01:02:03;;;;;;;7.22;5.13;;;6.30;99.90;;;;;;4819772;29;20082;-78
2022/11/07 01:07:16;;;;;;;5.95;4.95;;;6.40;99.90;;;;;;4820391;29;20058;-76
2022/11/07 01:09:43;;;;;;;10.05;5.55;;;6.30;99.90;;;;;;4818998;29;20050;-76
2022/11/07 01:12:10;;;;;;;5.80;5.15;;;6.30;99.90;;;;;;4802372;29;20074;-75
2022/11/07 01:14:37;;;;;;;6.65;5.20;;;6.30;99.90;;;;;;4811990;29;20046;-78
2022/11/07 01:17:05;;;;;;;7.88;5.63;;;6.30;99.90;;;;;;4802333;29;20149;-76
2022/11/07 01:19:33;;;;;;;8.68;5.78;;;6.30;99.90;;;;;;4819477;29;20056;-76
2022/11/07 01:22:00;;;;;;;8.32;5.20;;;6.30;99.90;;;;;;4827032;29;20054;-76
2022/11/07 01:24:28;;;;;;;6.55;4.80;;;6.30;99.90;;;;;;4837475;29;20046;-77
2022/11/07 01:26:55;;;;;;;7.00;5.22;;;6.30;99.90;;;;;;4820970;29;20080;-77
2022/11/07 01:29:22;;;;;;;5.53;4.93;;;6.30;99.90;;;;;;4822536;29;20050;-77
2022/11/07 01:31:49;;;;;;;7.40;5.05;;;6.30;99.90;;;;;;4804354;29;20061;-77
2022/11/07 01:34:17;;;;;;;6.05;4.78;;;6.30;99.90;;;;;;4822061;29;20061;-76
2022/11/07 01:36:46;;;;;;;5.68;5.07;;;6.30;99.90;;;;;;4822549;29;20062;-77
2022/11/07 01:39:13;;;;;;;6.75;5.18;;;6.40;99.90;;;;;;4805275;29;20046;-78
2022/11/07 01:41:41;;;;;;;8.25;5.22;;;6.40;99.90;;;;;;4822626;29;20089;-77
2022/11/07 01:44:41;;;;;;;6.03;4.78;;;6.40;99.90;;;;;;4820993;29;20525;-77
2022/11/07 01:47:10;;;;;;;5.75;4.80;;;6.40;99.90;;;;;;4819045;29;20146;-77
2022/11/07 01:49:41;;;;;;;8.70;5.63;;;6.40;99.90;;;;;;4819888;29;20526;-76
2022/11/07 01:52:14;;;;;;;6.20;4.78;;;6.40;99.90;;;;;;4819253;29;20058;-77
2022/11/07 01:54:54;;;;;;;6.05;4.60;;;6.50;99.90;;;;;;4822652;29;20694;-76
2022/11/07 01:57:25;;;;;;;7.50;4.95;;;6.50;99.90;;;;;;4806094;29;20051;-78
2022/11/07 01:59:55;;;;;;;9.15;5.10;;;6.50;99.90;;;;;;4823402;29;20058;-75
2022/11/07 02:02:25;;;;;;;7.32;4.82;;;6.50;99.90;;;;;;4805858;29;20050;-76
2022/11/07 02:04:53;;;;;;;7.10;5.55;;;6.40;99.90;;;;;;4805647;29;20066;-76
2022/11/07 02:07:23;;;;;;;8.32;5.88;;;6.40;99.90;;;;;;4822744;29;20054;-77
2022/11/07 02:09:52;;;;;;;6.90;4.78;;;6.40;99.90;;;;;;4822925;29;20058;-77
2022/11/07 02:12:19;;;;;;;6.30;4.90;;;6.40;99.90;;;;;;4815560;29;20081;-78
2022/11/07 02:14:47;;;;;;;5.22;4.72;;;6.40;99.90;;;;;;4821563;29;20142;-77
2022/11/07 02:17:14;;;;;;;7.63;6.05;;;6.40;99.90;;;;;;4810397;29;20107;-77
2022/11/07 02:19:44;;;;;;;8.02;5.00;;;6.40;99.90;;;;;;4818881;29;20173;-78
2022/11/07 02:22:19;;;;;;;5.68;5.13;;;6.40;99.90;;;;;;4820982;29;20141;-77
2022/11/07 02:24:53;;;;;;;7.85;5.22;;;6.40;99.90;;;;;;4813381;29;20493;-78
2022/11/07 02:27:23;;;;;;;5.57;4.85;;;6.40;99.90;;;;;;4820546;29;20084;-77
2022/11/07 02:29:55;;;;;;;9.05;5.63;;;6.40;99.90;;;;;;4820883;29;20487;-77
2022/11/07 02:32:22;;;;;;;7.18;5.40;;;6.30;99.90;;;;;;4806397;29;20089;-76
2022/11/07 02:34:56;;;;;;;6.80;5.13;;;6.40;99.90;;;;;;4820623;29;20106;-77
2022/11/07 02:37:27;;;;;;;7.72;5.75;;;6.30;99.90;;;;;;4820110;29;20148;-77
2022/11/07 02:39:55;;;;;;;6.80;5.13;;;6.30;99.90;;;;;;4821724;29;20497;-77
2022/11/07 02:42:23;;;;;;;7.15;5.60;;;6.30;99.90;;;;;;4821184;29;20065;-77
2022/11/07 02:44:53;;;;;;;8.13;5.00;;;6.30;99.90;;;;;;4820345;29;20149;-76
2022/11/07 02:47:20;;;;;;;7.60;5.40;;;6.40;99.90;;;;;;4810450;29;20111;-78
2022/11/07 02:49:47;;;;;;;8.63;6.10;;;6.40;99.90;;;;;;4808934;29;20062;-77
2022/11/07 02:52:15;;;;;;;7.00;4.68;;;6.40;99.90;;;;;;4809448;29;20061;-77
2022/11/07 02:54:42;;;;;;;6.30;4.82;;;6.40;99.90;;;;;;4820112;29;20054;-77
2022/11/07 02:57:10;;;;;;;6.32;4.57;;;6.40;99.90;;;;;;4819707;29;20405;-77
2022/11/07 02:59:37;;;;;;;5.13;4.55;;;6.50;99.90;;;;;;4804681;29;20103;-78
2022/11/07 03:02:05;;;;;;;6.20;4.38;;;6.50;99.90;;;;;;4821313;29;20542;-77
2022/11/07 03:04:32;;;;;;;7.68;5.35;;;6.40;99.90;;;;;;4808422;29;20066;-77
2022/11/07 03:07:02;;;;;;;4.15;3.75;;;6.50;99.90;;;;;;4819654;29;20589;-78
2022/11/07 03:09:29;;;;;;;6.57;5.40;;;6.50;99.90;;;;;;4819144;29;20137;-77
2022/11/07 03:11:56;;;;;;;6.45;5.13;;;6.50;99.90;;;;;;4820125;29;20058;-78
2022/11/07 03:14:25;;;;;;;8.02;4.28;;;6.50;99.90;;;;;;4819670;29;20057;-78
2022/11/07 03:16:52;;;;;;;5.30;4.40;;;6.50;99.90;;;;;;4819221;29;20047;-78
2022/11/07 03:19:19;;;;;;;4.88;4.43;;;6.50;99.90;;;;;;4820884;29;20591;-78
2022/11/07 03:21:49;;;;;;;7.40;4.53;;;6.50;99.90;;;;;;4824110;29;20046;-78
2022/11/07 03:24:16;;;;;;;5.65;4.18;;;6.50;99.90;;;;;;4820121;29;20058;-77
2022/11/07 03:26:44;;;;;;;8.35;4.97;;;6.50;99.90;;;;;;4820602;29;20552;-78
2022/11/07 03:29:11;;;;;;;6.05;4.50;;;6.50;99.90;;;;;;4821551;29;20058;-78
2022/11/07 03:31:39;;;;;;;7.90;4.85;;;6.50;99.90;;;;;;4802605;29;20051;-78
2022/11/07 03:34:06;;;;;;;7.97;4.88;;;6.50;99.90;;;;;;4820876;29;20058;-78
2022/11/07 03:36:34;;;;;;;7.68;4.40;;;6.50;99.90;;;;;;4820292;29;20047;-79
2022/11/07 03:39:01;;;;;;;5.72;5.07;;;6.50;99.90;;;;;;4821682;29;20514;-78
2022/11/07 03:41:28;;;;;;;8.05;5.13;;;6.50;99.90;;;;;;4825530;29;20074;-78
2022/11/07 03:43:55;;;;;;;6.97;4.95;;;6.60;99.90;;;;;;4820638;29;20145;-77
2022/11/07 03:46:22;;;;;;;7.50;4.78;;;6.60;99.90;;;;;;4819815;29;20061;-78
2022/11/07 03:48:51;;;;;;;5.60;4.80;;;6.60;99.90;;;;;;4819377;29;20054;-78
2022/11/07 03:51:18;;;;;;;12.63;5.05;;;6.70;99.90;;;;;;4822662;29;20697;-79
2022/11/07 03:53:45;;;;;;;5.28;4.40;;;6.70;99.90;;;;;;4818725;29;20055;-79
2022/11/07 03:56:13;;;;;;;8.52;4.57;;;6.70;99.90;;;;;;4818900;29;20050;-78
2022/11/07 03:58:40;;;;;;;7.55;4.70;;;6.70;99.90;;;;;;4817195;29;20115;-78
2022/11/07 04:01:09;;;;;;;7.20;4.43;;;6.80;99.90;;;;;;4819077;29;20058;-79
2022/11/07 04:03:36;;;;;;;4.82;4.28;;;6.80;99.90;;;;;;4820196;29;20519;-77
2022/11/07 04:18:33;;;;;;;6.82;4.95;;;6.80;99.90;;;;;;5130640;27;20383;-79
2022/11/07 04:21:04;;;;;;;6.03;4.78;;;7.10;99.90;;;;;;5089795;28;20104;-77
2022/11/07 04:23:36;;;;;;;8.82;4.93;;;7.10;99.90;;;;;;5112443;28;20035;-78
2022/11/07 04:28:51;;;;;;;5.45;4.95;;;7.00;99.90;;;;;;5089919;28;20537;-74
2022/11/07 04:31:18;;;;;;;11.00;5.18;;;6.90;99.90;;;;;;5068821;28;20051;-75
2022/11/07 04:33:47;;;;;;;7.43;4.82;;;6.90;99.90;;;;;;5085650;28;20058;-72
2022/11/07 04:36:15;;;;;;;5.90;4.72;;;6.90;99.90;;;;;;5087362;28;20048;-73
2022/11/07 04:38:43;;;;;;;11.57;5.10;;;6.90;99.90;;;;;;5072796;28;20527;-73
2022/11/07 04:41:19;;;;;;;5.38;4.88;;;6.90;99.90;;;;;;5081322;28;20051;-73
2022/11/07 04:43:47;;;;;;;5.60;5.07;;;6.90;99.90;;;;;;5094612;28;20075;-72
2022/11/07 04:46:15;;;;;;;5.43;4.93;;;6.90;99.90;;;;;;5079309;28;20415;-76
2022/11/07 04:48:43;;;;;;;5.20;4.75;;;6.90;99.90;;;;;;5098463;28;20415;-78
2022/11/07 04:51:17;;;;;;;8.75;5.03;;;7.00;99.90;;;;;;5079316;28;20147;-78
2022/11/07 04:53:45;;;;;;;5.78;4.45;;;6.90;99.90;;;;;;5100511;28;20054;-72
2022/11/07 04:56:12;;;;;;;5.70;4.88;;;7.00;99.90;;;;;;5096535;28;20039;-72
2022/11/07 04:58:40;;;;;;;6.18;4.75;;;6.90;99.90;;;;;;5097304;28;20048;-73
2022/11/07 05:01:07;;;;;;;8.07;4.90;;;6.90;99.90;;;;;;5098483;28;20150;-73
2022/11/07 05:03:34;;;;;;;5.22;4.60;;;6.90;99.90;;;;;;5085875;28;20049;-72
2022/11/07 05:06:03;;;;;;;7.38;5.00;;;6.90;99.90;;;;;;5084824;28;20048;-73
2022/11/07 05:08:32;;;;;;;6.15;5.13;;;7.00;99.90;;;;;;5092767;28;20044;-75
2022/11/07 05:10:59;;;;;;;8.65;4.95;;;7.00;99.90;;;;;;5086535;28;20048;-73
2022/11/07 05:13:26;;;;;;;6.82;5.20;;;7.00;99.90;;;;;;5087069;28;20063;-73
2022/11/07 05:15:58;;;;;;;5.63;5.07;;;7.00;99.90;;;;;;5095296;28;20052;-71
2022/11/07 05:18:25;;;;;;;5.07;4.53;;;7.00;99.90;;;;;;5072211;28;20052;-73
2022/11/07 05:20:53;;;;;;;5.93;5.32;;;7.00;99.90;;;;;;5091983;28;20071;-73
2022/11/07 05:23:21;;;;;;;5.32;4.82;;;7.00;99.90;;;;;;5073731;28;20063;-73
2022/11/07 05:25:52;;;;;;;6.32;4.85;;;7.00;99.90;;;;;;5070561;28;20071;-72
2022/11/07 05:28:22;;;;;;;9.65;5.03;;;7.00;99.90;;;;;;5090318;28;20058;-72
2022/11/07 05:30:50;;;;;;;6.45;4.60;;;7.00;99.90;;;;;;5051297;28;20062;-74
2022/11/07 05:33:19;;;;;;;8.30;4.50;;;7.00;99.90;;;;;;5056082;28;20419;-74
2022/11/07 05:35:46;;;;;;;8.15;4.13;;;7.00;99.90;;;;;;5077965;28;20053;-73
2022/11/07 05:38:14;;;;;;;9.05;4.68;;;7.00;99.90;;;;;;5078530;28;20131;-72
2022/11/07 05:40:41;;;;;;;5.55;4.35;;;7.10;99.90;;;;;;5092629;28;20478;-73
2022/11/07 05:43:13;;;;;;;8.02;4.78;;;7.00;99.90;;;;;;5073432;28;20134;-74
2022/11/07 05:45:41;;;;;;;5.68;4.65;;;7.10;99.90;;;;;;5093224;28;20159;-73
2022/11/07 05:48:11;;;;;;;9.50;4.75;;;7.10;99.90;;;;;;5077851;28;20055;-74
2022/11/07 05:50:39;;;;;;;7.65;4.82;;;7.10;99.90;;;;;;5082572;28;20052;-73
2022/11/07 05:53:07;;;;;;;17.20;5.80;;;7.10;99.90;;;;;;5065207;28;20124;-73
2022/11/07 05:55:34;;;;;;;7.80;4.35;;;7.10;99.90;;;;;;5072806;28;20577;-73
2022/11/07 05:58:10;;;;;;;4.55;4.15;;;7.20;99.90;;;;;;5074080;28;20057;-74
2022/11/07 06:00:38;;;;;;;4.35;3.95;;;7.20;99.90;;;;;;5093649;28;20043;-73
2022/11/07 06:03:05;;;;;;;12.52;4.65;;;7.10;99.90;;;;;;5072478;28;20151;-81
2022/11/07 06:05:33;;;;;;;4.80;4.25;;;7.10;99.90;;;;;;5089749;28;20196;-80
2022/11/07 06:08:00;;;;;;;8.20;5.00;;;7.10;99.90;;;;;;5069974;28;20076;-83
2022/11/07 06:10:28;;;;;;;8.68;4.60;;;7.10;99.90;;;;;;5082042;28;20066;-80
2022/11/07 06:12:59;;;;;;;8.25;4.30;;;7.10;99.90;;;;;;5069224;28;20040;-82
2022/11/07 06:15:31;;;;;;;6.93;4.28;;;7.10;99.90;;;;;;5085997;28;20377;-80
2022/11/07 06:18:00;;;;;;;7.80;4.38;;;7.10;99.90;;;;;;5070362;28;20048;-79
2022/11/07 06:20:28;;;;;;;5.57;3.83;;;7.10;99.90;;;;;;5066213;28;20040;-82
2022/11/07 06:22:58;;;;;;;4.47;3.80;;;7.10;99.90;;;;;;5087323;28;20075;-82
2022/11/07 06:25:25;;;;;;;5.07;3.83;;;7.10;99.90;;;;;;5084409;28;20055;-77
2022/11/07 06:27:53;;;;;;;5.35;3.75;;;7.10;99.90;;;;;;5087478;28;20056;-81
2022/11/07 06:30:21;;;;;;;4.70;3.63;;;7.10;99.90;;;;;;5065519;28;20058;-81
2022/11/07 06:32:49;;;;;;;6.47;3.90;;;7.10;99.90;;;;;;5083454;28;20044;-78
2022/11/07 06:35:17;;;;;;;4.10;3.70;;;7.10;99.90;;;;;;5067748;28;20059;-80
2022/11/07 06:37:45;;;;;;;5.28;3.42;;;7.10;99.90;;;;;;5084295;28;20494;-77
2022/11/07 06:40:12;;;;;;;8.88;4.38;;;7.20;99.90;;;;;;5084456;28;20083;-80
2022/11/07 06:42:40;;;;;;;5.97;4.05;;;7.20;99.90;;;;;;5085618;28;20048;-80
2022/11/07 06:45:10;;;;;;;4.85;3.72;;;7.20;99.90;;;;;;5085700;28;20055;-79
2022/11/07 06:47:38;;;;;;;5.15;4.65;;;7.10;99.90;;;;;;5067598;28;20048;-81
2022/11/07 06:50:08;;;;;;;4.75;3.60;;;7.10;99.90;;;;;;5087186;28;20051;-80
2022/11/07 06:52:35;;;;;;;7.20;4.90;;;7.20;99.90;;;;;;5087076;28;20044;-73
2022/11/07 06:55:03;;;;;;;5.45;4.38;;;7.20;99.90;;;;;;5087404;28;20543;-73
2022/11/07 06:57:31;;;;;;;5.40;4.28;;;7.20;99.90;;;;;;5051258;28;20048;-73
2022/11/07 06:59:58;;;;;;;11.50;4.65;;;7.20;99.90;;;;;;5068799;28;20048;-72
2022/11/07 07:02:25;;;;;;;7.35;4.70;;;7.20;99.90;;;;;;5086220;28;20048;-75
2022/11/07 07:04:52;;;;;;;5.78;4.38;;;7.10;99.90;;;;;;5066071;28;20070;-74
2022/11/07 07:07:21;;;;;;;11.18;4.60;;;7.10;99.90;;;;;;5064190;28;20414;-74
2022/11/07 07:09:48;;;;;;;9.77;4.63;;;7.10;99.90;;;;;;5087950;28;20039;-72
2022/11/07 07:12:16;;;;;;;7.78;4.00;;;7.20;99.90;;;;;;5054103;28;20052;-80
2022/11/07 07:14:43;;;;;;;9.55;4.20;;;7.10;99.90;;;;;;5082498;28;20040;-76
2022/11/07 07:17:12;;;;;;;7.30;4.70;;;7.10;99.90;;;;;;5079476;28;20056;-79
2022/11/07 07:19:39;;;;;;;6.57;4.65;;;7.10;99.90;;;;;;5070163;28;20040;-80
2022/11/07 07:22:11;;;;;;;8.32;3.83;;;7.20;99.90;;;;;;5088530;28;20093;-83
2022/11/07 07:24:40;;;;;;;7.50;4.95;;;7.20;99.90;;;;;;5082553;28;20091;-84
2022/11/07 07:27:07;;;;;;;7.88;5.35;;;7.20;99.90;;;;;;5088151;28;20059;-78
2022/11/07 07:29:36;;;;;;;6.82;4.88;;;7.30;99.90;;;;;;5083857;28;20515;-79
2022/11/07 07:32:03;;;;;;;5.25;4.10;;;7.30;99.90;;;;;;5083504;28;20050;-79
2022/11/07 07:34:30;;;;;;;14.18;5.07;;;7.40;99.90;;;;;;5062912;28;20143;-79
2022/11/07 07:36:58;;;;;;;5.47;4.65;;;7.40;99.90;;;;;;5071353;28;20464;-78
2022/11/07 07:39:26;;;;;;;8.27;4.75;;;7.40;99.90;;;;;;5067150;28;20588;-79
2022/11/07 07:41:55;;;;;;;7.50;4.70;;;7.40;99.90;;;;;;5070080;28;20044;-79
2022/11/07 07:44:24;;;;;;;8.30;5.07;;;7.40;99.90;;;;;;5066950;28;20044;-79
2022/11/07 07:46:51;;;;;;;5.72;5.20;;;7.40;99.90;;;;;;5083352;28;20139;-79
2022/11/07 07:49:18;;;;;;;7.07;4.80;;;7.50;99.90;;;;;;5081509;28;20053;-81
2022/11/07 07:51:45;;;;;;;6.80;4.68;;;7.50;99.90;;;;;;5083268;28;20048;-72
2022/11/07 07:54:13;;;;;;;6.10;4.47;;;7.50;99.90;;;;;;5060404;28;20083;-73
2022/11/07 07:56:40;;;;;;;7.45;4.95;;;7.50;99.90;;;;;;5083743;28;20047;-73
2022/11/07 07:59:09;;;;;;;8.00;4.95;;;7.50;99.90;;;;;;5085875;28;20565;-79
2022/11/07 08:01:36;;;;;;;7.20;5.05;;;7.50;99.90;;;;;;5083640;28;20086;-72
2022/11/07 08:04:04;;;;;;;5.85;5.07;;;7.50;99.90;;;;;;5083479;28;20060;-73
2022/11/07 08:06:33;;;;;;;7.85;4.60;;;7.50;99.90;;;;;;5085105;28;20052;-72
2022/11/07 08:09:00;;;;;;;6.78;4.40;;;7.50;99.90;;;;;;5085497;28;20078;-72
2022/11/07 08:11:27;;;;;;;7.60;5.07;;;7.60;99.90;;;;;;5082157;28;20060;-72
2022/11/07 08:13:55;;;;;;;8.55;5.03;;;7.60;99.90;;;;;;5080464;28;20051;-72
2022/11/07 08:16:23;;;;;;;7.15;5.22;;;7.50;99.90;;;;;;5080314;28;20392;-74
2022/11/07 08:18:51;;;;;;;12.38;5.78;;;7.60;99.90;;;;;;5071913;28;20105;-75
2022/11/07 08:21:18;;;;;;;7.07;4.65;;;7.60;99.90;;;;;;5076203;28;20056;-76
2022/11/07 08:23:46;;;;;;;6.15;5.55;;;7.60;99.90;;;;;;5084232;28;20460;-77
2022/11/07 08:26:13;;;;;;;10.77;5.57;;;7.60;99.90;;;;;;5079407;28;20052;-75
2022/11/07 08:28:41;;;;;;;6.40;4.40;;;7.50;99.90;;;;;;5059677;28;20155;-75
2022/11/07 08:31:11;;;;;;;7.35;5.50;;;7.60;99.90;;;;;;5064634;28;20047;-73
2022/11/07 08:33:40;;;;;;;8.80;5.45;;;7.60;99.90;;;;;;5086298;28;20041;-76
2022/11/07 08:36:08;;;;;;;11.70;6.18;;;7.70;99.90;;;;;;5072877;28;20504;-73
2022/11/07 08:38:36;;;;;;;13.18;8.02;;;7.60;99.90;;;;;;5079362;28;20669;-73
2022/11/07 08:41:04;;;;;;;13.95;7.30;;;7.60;99.90;;;;;;5089216;28;20506;-73
2022/11/07 08:43:32;;;;;;;14.77;7.03;;;7.60;99.90;;;;;;5079073;28;20512;-73
2022/11/07 08:45:59;;;;;;;11.35;6.72;;;7.50;99.90;;;;;;5072588;28;20476;-72
2022/11/07 08:48:27;;;;;;;14.30;5.95;;;7.50;99.90;;;;;;5068651;28;20139;-73
2022/11/07 08:50:57;;;;;;;9.55;6.32;;;7.50;99.90;;;;;;5069703;28;20053;-73
2022/11/07 08:53:27;;;;;;;12.63;7.97;;;7.50;99.90;;;;;;5081493;28;20048;-73
2022/11/07 08:56:01;;;;;;;15.63;9.27;;;7.60;99.90;;;;;;5070015;28;20511;-73
2022/11/07 08:58:29;;;;;;;13.88;7.45;;;7.60;99.90;;;;;;5056968;28;20059;-73
2022/11/07 09:00:58;;;;;;;14.75;9.20;;;7.60;99.90;;;;;;5093079;28;20062;-73
2022/11/07 09:03:25;;;;;;;17.67;10.07;;;7.60;99.90;;;;;;5086886;28;20055;-74
2022/11/07 09:05:52;;;;;;;18.95;10.15;;;7.70;99.90;;;;;;5088734;28;20993;-74
2022/11/07 09:08:21;;;;;;;12.82;7.00;;;7.70;99.90;;;;;;5062230;28;20052;-80
2022/11/07 09:10:49;;;;;;;11.02;8.25;;;7.70;99.90;;;;;;5094889;28;20044;-80
2022/11/07 09:13:16;;;;;;;15.35;6.93;;;7.70;99.90;;;;;;5072244;28;20520;-79
2022/11/07 09:15:43;;;;;;;12.27;6.05;;;7.70;99.90;;;;;;5074683;28;20040;-80
2022/11/07 09:18:10;;;;;;;10.50;6.55;;;7.70;99.90;;;;;;5071667;28;20132;-80
2022/11/07 09:20:38;;;;;;;9.40;6.32;;;7.70;99.90;;;;;;5088957;28;20044;-81
2022/11/07 09:23:05;;;;;;;7.93;6.30;;;7.80;99.90;;;;;;5086349;28;20126;-80
2022/11/07 09:25:34;;;;;;;11.32;6.10;;;7.70;99.90;;;;;;5084953;28;20040;-80
2022/11/07 09:28:05;;;;;;;11.93;5.80;;;7.70;99.90;;;;;;5083100;28;20055;-80
2022/11/07 09:30:32;;;;;;;7.38;5.82;;;7.70;99.90;;;;;;5078964;28;20504;-80
2022/11/07 09:32:59;;;;;;;8.32;5.90;;;7.80;99.90;;;;;;5082989;28;20071;-78
2022/11/07 09:35:27;;;;;;;10.35;5.65;;;7.70;99.90;;;;;;5079444;28;20048;-81
2022/11/07 09:37:55;;;;;;;9.55;5.40;;;7.80;99.90;;;;;;5085145;28;20051;-80
2022/11/07 09:40:32;;;;;;;7.55;5.13;;;7.80;99.90;;;;;;5079341;28;20070;-80
2022/11/07 09:43:23;;;;;;;5.65;5.07;;;7.90;99.90;;;;;;5076205;28;20048;-78
2022/11/07 09:46:00;;;;;;;8.27;5.20;;;7.90;99.90;;;;;;5074049;28;20083;-79
2022/11/07 09:48:38;;;;;;;11.32;6.18;;;7.90;99.90;;;;;;5080039;28;20155;-81
2022/11/07 09:51:13;;;;;;;8.82;5.10;;;7.70;99.90;;;;;;5085714;28;20075;-79
2022/11/07 09:53:44;;;;;;;11.65;5.80;;;7.70;99.90;;;;;;5079736;28;20071;-78
2022/11/07 09:56:13;;;;;;;10.07;5.90;;;7.60;99.90;;;;;;5083940;28;20504;-80
2022/11/07 09:58:45;;;;;;;10.85;5.93;;;7.60;99.90;;;;;;5084223;28;20135;-81
2022/11/07 10:01:17;;;;;;;6.60;5.32;;;7.60;99.90;;;;;;5083961;28;20607;-81
2022/11/07 10:03:45;;;;;;;10.32;5.45;;;7.70;99.90;;;;;;5076090;28;20147;-78
2022/11/07 10:06:21;;;;;;;12.57;6.00;;;7.70;99.90;;;;;;5089062;28;20047;-78
2022/11/07 10:08:55;;;;;;;9.48;4.97;;;7.70;99.90;;;;;;5095856;28;20047;-81
2022/11/07 10:11:34;;;;;;;9.30;5.65;;;7.70;99.90;;;;;;5076995;28;20055;-81
2022/11/07 10:14:19;;;;;;;8.32;5.47;;;7.60;99.90;;;;;;5085338;28;20102;-81
2022/11/07 10:17:08;;;;;;;6.43;4.97;;;7.60;99.90;;;;;;5080633;28;20113;-80
2022/11/07 10:20:17;;;;;;;9.30;5.53;;;7.60;99.90;;;;;;5088553;28;20535;-79
2022/11/07 10:23:01;;;;;;;7.63;5.72;;;7.60;99.90;;;;;;5089113;28;20420;-80
2022/11/07 10:25:39;;;;;;;8.35;5.60;;;7.60;99.90;;;;;;5060684;28;20070;-79
2022/11/07 10:28:15;;;;;;;5.72;5.07;;;7.60;99.90;;;;;;5068414;28;20523;-81
2022/11/07 10:30:47;;;;;;;6.13;4.40;;;7.60;99.90;;;;;;5077872;28;20102;-80
2022/11/07 10:33:32;;;;;;;8.52;5.10;;;7.60;99.90;;;;;;5069816;28;20509;-80
2022/11/07 10:36:07;;;;;;;12.57;5.70;;;7.70;99.90;;;;;;5086768;28;20051;-82
2022/11/07 10:38:40;;;;;;;9.82;5.20;;;7.70;99.90;;;;;;5084137;28;20120;-82
2022/11/07 10:41:13;;;;;;;;;;;7.70;99.90;;;;;;5072749;28;20044;-80
2022/11/07 10:43:45;;;;;;;10.33;5.37;;;7.70;99.90;;;;;;5080403;28;19924;-80
2022/11/07 10:46:20;;;;;;;11.87;5.33;;;7.70;99.90;;;;;;5085576;28;20400;-79
2022/11/07 10:48:56;;;;;;;8.38;5.25;;;7.60;99.90;;;;;;5083568;28;20314;-78
2022/11/07 10:51:38;;;;;;;10.25;4.65;;;7.70;99.90;;;;;;5081383;28;20056;-80
2022/11/07 10:54:06;;;;;;;6.55;4.50;;;7.70;99.90;;;;;;5082203;28;20070;-79
2022/11/07 10:56:44;;;;;;;7.70;4.90;;;7.70;99.90;;;;;;5090889;28;20090;-81
2022/11/07 10:59:13;;;;;;;9.80;4.90;;;7.80;99.90;;;;;;5078991;28;20048;-77
2022/11/07 11:01:50;;;;;;;11.80;5.18;;;7.80;99.90;;;;;;5077590;28;20040;-81
2022/11/07 11:04:22;;;;;;;7.45;4.70;;;7.80;99.90;;;;;;5077125;28;20133;-79
2022/11/07 11:06:58;;;;;;;7.78;5.05;;;7.80;99.90;;;;;;5077713;28;20468;-73
2022/11/07 11:09:31;;;;;;;7.05;4.68;;;7.80;99.90;;;;;;5077550;28;20163;-73
2022/11/07 11:12:04;;;;;;;10.05;4.97;;;7.80;99.90;;;;;;5079945;28;20054;-73
2022/11/07 11:14:31;;;;;;;9.40;4.28;;;7.80;99.90;;;;;;5090050;28;20283;-72
2022/11/07 11:17:00;;;;;;;7.85;5.53;;;7.90;99.90;;;;;;5084241;28;20139;-72
2022/11/07 11:19:35;;;;;;;9.23;4.85;;;7.80;99.90;;;;;;5071616;28;20138;-74
2022/11/07 11:22:02;;;;;;;7.32;5.03;;;7.80;99.90;;;;;;5069928;28;20105;-75
2022/11/07 11:24:36;;;;;;;6.10;4.93;;;7.80;99.90;;;;;;5077619;28;20047;-75
2022/11/07 11:27:12;;;;;;;8.85;4.70;;;7.70;99.90;;;;;;5066477;28;20060;-75
2022/11/07 11:29:48;;;;;;;6.75;5.20;;;7.80;99.90;;;;;;5068076;28;20060;-74
2022/11/07 11:32:25;;;;;;;8.40;5.00;;;7.80;99.90;;;;;;5080324;28;20048;-74
2022/11/07 11:35:04;;;;;;;7.80;5.22;;;7.80;99.90;;;;;;5078611;28;20049;-75
2022/11/07 11:37:35;;;;;;;9.23;5.50;;;7.80;99.90;;;;;;5086071;28;20051;-75
2022/11/07 11:40:15;;;;;;;6.13;4.75;;;7.80;99.90;;;;;;5089842;28;20048;-75
2022/11/07 11:42:51;;;;;;;11.23;4.93;;;7.80;99.90;;;;;;5079521;28;20052;-76
2022/11/07 11:45:29;;;;;;;10.32;5.97;;;7.80;99.90;;;;;;5067319;28;20048;-77
2022/11/07 11:48:03;;;;;;;7.22;5.13;;;7.80;99.90;;;;;;5066487;28;20083;-75
2022/11/07 11:50:43;;;;;;;10.77;5.43;;;7.70;99.90;;;;;;5089912;28;20048;-76
2022/11/07 11:53:17;;;;;;;7.80;5.15;;;7.70;99.90;;;;;;5087351;28;20063;-72
2022/11/07 11:55:54;;;;;;;8.20;5.70;;;7.70;99.90;;;;;;5077707;28;20052;-75
2022/11/07 11:58:36;;;;;;;8.70;5.78;;;7.80;99.90;;;;;;5067272;28;20055;-75
2022/11/07 12:01:13;;;;;;;8.35;5.57;;;7.70;99.90;;;;;;5083363;28;20456;-75
2022/11/07 12:04:23;;;;;;;8.50;5.35;;;7.70;99.90;;;;;;5047048;28;20052;-76
2022/11/07 12:06:54;;;;;;;7.63;5.80;;;7.70;99.90;;;;;;5073003;28;20062;-79
2022/11/07 12:09:33;;;;;;;13.70;6.75;;;7.60;99.90;;;;;;5089855;28;20132;-77
2022/11/07 12:12:17;;;;;;;8.32;5.07;;;7.60;99.90;;;;;;5047641;28;20227;-75
2022/11/07 12:15:27;;;;;;;6.20;5.03;;;7.50;99.90;;;;;;5048342;28;20455;-75
2022/11/07 12:18:01;;;;;;;6.97;5.10;;;7.50;99.90;;;;;;5043082;28;20362;-77
2022/11/07 12:20:47;;;;;;;11.93;5.70;;;7.50;99.90;;;;;;5046966;28;20049;-77
2022/11/07 12:23:27;;;;;;;9.70;6.00;;;7.50;99.90;;;;;;5046905;28;20056;-76
2022/11/07 12:26:02;;;;;;;11.95;5.85;;;7.60;99.90;;;;;;5047310;28;20077;-75
2022/11/07 12:28:42;;;;;;;7.55;4.97;;;7.60;99.90;;;;;;5050135;28;20060;-75
2022/11/07 12:31:29;;;;;;;6.82;4.97;;;7.60;99.90;;;;;;5043090;28;20052;-74
2022/11/07 12:34:06;;;;;;;8.68;5.05;;;7.60;99.90;;;;;;5051938;28;20060;-75
2022/11/07 12:36:52;;;;;;;7.72;5.18;;;7.60;99.90;;;;;;5052021;28;20056;-75
2022/11/07 12:39:35;;;;;;;6.25;4.88;;;7.60;99.90;;;;;;5051458;28;20049;-73
2022/11/07 12:42:08;;;;;;;11.10;5.68;;;7.60;99.90;;;;;;5050104;28;20061;-74
2022/11/07 12:44:59;;;;;;;12.18;6.13;;;7.60;99.90;;;;;;5043660;28;20099;-74
2022/11/07 12:47:48;;;;;;;13.25;5.95;;;7.60;99.90;;;;;;5052786;28;20116;-75
2022/11/07 12:50:28;;;;;;;9.63;5.35;;;7.60;99.90;;;;;;5050525;28;20484;-74
2022/11/07 12:53:11;;;;;;;6.18;5.53;;;7.70;99.90;;;;;;5045351;28;20053;-74
2022/11/07 12:55:43;;;;;;;11.88;6.53;;;7.70;99.90;;;;;;5052857;28;20055;-75
2022/11/07 12:58:18;;;;;;;6.22;5.00;;;7.80;99.90;;;;;;5045354;28;20048;-74
2022/11/07 13:00:46;;;;;;;9.45;5.40;;;7.80;99.90;;;;;;5047211;28;20511;-75
2022/11/07 13:03:39;;;;;;;10.40;6.18;;;7.70;99.90;;;;;;5044178;28;20052;-74
2022/11/07 13:06:15;;;;;;;11.90;6.32;;;7.80;99.90;;;;;;5051149;28;20087;-75
2022/11/07 13:08:53;;;;;;;8.60;5.78;;;7.80;99.90;;;;;;5049873;28;20057;-75
2022/11/07 13:11:28;;;;;;;13.68;6.50;;;7.90;99.90;;;;;;5052479;28;20498;-79
2022/11/07 13:14:19;;;;;;;7.38;4.70;;;7.90;99.90;;;;;;5050278;28;20548;-79
2022/11/07 13:16:54;;;;;;;11.13;5.72;;;7.90;99.90;;;;;;5049683;28;20037;-73
2022/11/07 13:19:31;;;;;;;11.55;5.43;;;7.90;99.90;;;;;;5050752;28;20128;-73
2022/11/07 13:22:02;;;;;;;14.82;6.28;;;7.90;99.90;;;;;;5045528;28;20513;-73
2022/11/07 13:24:32;;;;;;;14.20;5.90;;;7.90;99.90;;;;;;5050590;28;20045;-74
2022/11/07 13:27:01;;;;;;;14.63;6.22;;;7.90;99.90;;;;;;5039413;28;20057;-74
2022/11/07 13:29:36;;;;;;;10.65;6.70;;;7.90;99.90;;;;;;5050109;28;20103;-73
2022/11/07 13:32:10;;;;;;;13.32;7.65;;;7.90;99.90;;;;;;5049486;28;20132;-73